Decoded Metar for KLBX (ANGLETON in TX, USA) (IATA:LBX) | Meteo·Mobile Aviation Weather
aviador You're here:

KLBX Decoded Metar

ANGLETON in TX, USA
Report Time2019-07-16 22:02:00
UTC Time2019-07-16 22:28:51
Flight Rules vfr VFR
Wind190° at 13 kt
W.Decomp.*RWY 17: 12.6 kt HW 3.4 kt RCW
Visibility9999 m
Phenomena:N/A
Clouds:Scattered 030 Hf
Scattered 036 Hf
Expected CloudBase > 2,800 ft AGL from Temp-Dew spread
CeilingNone
Temp31°C (ISA +16)
Dew Point24°C (66% RH)
Heat Index36.4°C
QNH1016 hPa
Density Alt2,146 ft
Elevation20 ft
Report Wrong Elevation
Raw Report
KLBX 162202Z AUTO 19013KT 10SM SCT030 SCT036 31/24 A3001 RMK AO2
T03110239=

Extra information for KLBX:More info

Metar Taf Metar & Taf Last 4 Metars F.Rules Stats Wind Profile Meteogram Temp Stats Airport Information Weather charts Add Link Nearby VenuesMetar ALERT Operation Metar Decoded Social comments

AIRNAV info for KLBX